Time;durP1;ratioP1;P1;durP2;ratioP2;P2;SDS_P1;SDS_P2;PMS_P1;PMS_P2;Temp;Humidity;BMP_temperature;BMP_pressure;BME280_temperature;BME280_humidity;BME280_pressure;Samples;Min_cycle;Max_cycle;Signal;HPM_P1;HPM_P2
2022/04/22 00:03:44;;;;;;;52.37;30.03;;;;;;;8.58;93.63;100107.55;3710919;78;98671;-81
2022/04/22 00:08:45;;;;;;;52.73;31.00;;;;;;;8.61;93.42;100099.36;3706783;78;98732;-81
2022/04/22 00:13:46;;;;;;;44.23;26.03;;;;;;;8.63;94.00;100101.17;3752029;76;98833;-81
2022/04/22 00:18:47;;;;;;;45.63;27.53;;;;;;;8.65;93.90;100091.98;3733229;78;99146;-81
2022/04/22 00:23:50;;;;;;;51.50;29.53;;;;;;;8.68;93.34;100091.82;3739294;77;99148;-80
2022/04/22 00:28:52;;;;;;;55.63;31.70;;;;;;;8.71;95.03;100100.09;3742358;78;32501;-79
2022/04/22 00:33:53;;;;;;;50.10;30.32;;;;;;;8.72;93.99;100090.69;3740725;78;98866;-82
2022/04/22 00:38:56;;;;;;;45.13;25.17;;;;;;;8.75;94.93;100096.02;3701673;78;98713;-81
2022/04/22 00:43:57;;;;;;;47.83;28.45;;;;;;;8.75;94.66;100086.41;3729870;78;99086;-81
2022/04/22 00:48:58;;;;;;;58.43;32.33;;;;;;;8.77;94.12;100083.51;3741454;78;98721;-81
2022/04/22 00:54:03;;;;;;;46.53;27.13;;;;;;;8.82;95.57;100075.52;3717864;78;98808;-81
2022/04/22 00:59:04;;;;;;;44.88;26.57;;;;;;;8.77;95.62;100071.77;3745434;78;99103;-81
2022/04/22 01:14:46;;;;;;;25.72;15.80;;;;;;;8.77;96.60;100058.81;3724693;78;98913;-81
2022/04/22 01:19:47;;;;;;;24.80;14.83;;;;;;;8.79;96.27;100051.59;3731181;77;98745;-81
2022/04/22 01:24:56;;;;;;;25.87;15.27;;;;;;;8.78;96.14;100048.05;3733931;78;98806;-81
2022/04/22 01:30:00;;;;;;;22.17;14.13;;;;;;;8.77;96.36;100045.09;3747001;77;98763;-81
2022/04/22 01:35:03;;;;;;;23.83;14.53;;;;;;;8.75;96.27;100039.20;3727478;77;98784;-81
2022/04/22 01:40:05;;;;;;;24.60;13.38;;;;;;;8.76;96.09;100035.86;3737880;78;33683;-81
2022/04/22 01:45:08;;;;;;;28.23;14.40;;;;;;;8.75;95.85;100035.66;3744802;77;98607;-81
2022/04/22 01:50:09;;;;;;;36.35;17.60;;;;;;;8.74;95.82;100032.14;3748317;78;99251;-80
2022/04/22 01:55:10;;;;;;;32.38;16.30;;;;;;;8.74;95.72;100030.77;3741360;78;98771;-80
2022/04/22 02:00:12;;;;;;;35.80;16.90;;;;;;;8.75;95.69;100028.23;3746045;77;98728;-80
2022/04/22 02:05:13;;;;;;;34.78;16.42;;;;;;;8.76;95.70;100019.41;3763904;76;98720;-80
2022/04/22 02:10:14;;;;;;;26.30;15.17;;;;;;;8.78;95.56;100030.81;3798595;76;25804;-81
2022/04/22 02:15:17;;;;;;;33.47;17.67;;;;;;;8.79;96.17;100031.02;3792132;76;98740;-80
2022/04/22 02:20:17;;;;;;;27.32;15.18;;;;;;;8.79;96.23;100022.78;3771071;76;99032;-80
2022/04/22 02:25:19;;;;;;;28.67;15.93;;;;;;;8.79;96.42;100015.32;3801321;76;99229;-80
2022/04/22 02:30:20;;;;;;;41.43;22.20;;;;;;;8.78;96.42;100011.61;3809805;76;98788;-80
2022/04/22 02:35:21;;;;;;;35.20;19.50;;;;;;;8.80;96.61;100014.75;3795318;76;98994;-80
2022/04/22 02:45:42;;;;;;;64.40;41.30;;;;;;;8.81;97.23;100023.19;3802190;76;98582;-80
2022/04/22 02:50:43;;;;;;;39.17;26.07;;;;;;;8.82;98.01;100022.82;3800950;76;97853;-80
2022/04/22 02:55:48;;;;;;;33.73;20.70;;;;;;;8.85;98.43;100019.91;3795060;76;98839;-80
2022/04/22 03:00:49;;;;;;;27.60;18.50;;;;;;;8.86;98.80;100028.34;3789574;76;98974;-80
2022/04/22 03:05:52;;;;;;;31.83;19.97;;;;;;;8.87;99.20;100023.86;3801164;76;98798;-80
2022/04/22 03:10:53;;;;;;;29.75;18.80;;;;;;;8.89;99.37;100027.00;3802560;76;98750;-81
2022/04/22 03:15:54;;;;;;;32.87;20.30;;;;;;;8.93;99.66;100023.73;3831600;76;98341;-80
2022/04/22 03:20:56;;;;;;;35.13;22.47;;;;;;;8.97;100.00;100021.82;3813659;76;102433;-80
2022/04/22 03:25:58;;;;;;;35.17;23.90;;;;;;;9.00;100.00;100019.68;3788351;76;99577;-82
2022/04/22 03:31:00;;;;;;;37.57;24.23;;;;;;;9.04;100.00;100025.20;3799666;76;99519;-80
2022/04/22 03:36:01;;;;;;;38.43;25.57;;;;;;;9.07;100.00;100025.84;3791415;76;99549;-79
2022/04/22 03:41:02;;;;;;;38.17;24.40;;;;;;;9.11;100.00;100039.80;3808719;75;99348;-80
2022/04/22 03:46:03;;;;;;;39.27;25.40;;;;;;;9.15;100.00;100036.52;3817860;76;26193;-80
2022/04/22 03:51:04;;;;;;;42.20;27.80;;;;;;;9.17;100.00;100023.78;3811192;76;99102;-80
2022/04/22 04:01:25;;;;;;;42.58;28.65;;;;;;;9.25;100.00;100027.59;3803617;76;99248;-80
2022/04/22 04:06:26;;;;;;;45.00;30.20;;;;;;;9.28;100.00;100033.69;3785169;76;99321;-81
2022/04/22 04:16:47;;;;;;;49.77;31.55;;;;;;;9.38;100.00;100038.50;3779524;77;32458;-81
2022/04/22 04:27:07;;;;;;;51.65;35.15;;;;;;;9.45;100.00;100058.39;3780794;77;98727;-80
2022/04/22 04:32:08;;;;;;;57.23;37.17;;;;;;;9.49;100.00;100055.88;3753422;77;99755;-80
2022/04/22 04:37:10;;;;;;;60.63;39.50;;;;;;;9.54;100.00;100059.65;3721760;78;99397;-80
2022/04/22 04:42:11;;;;;;;53.33;35.48;;;;;;;9.61;100.00;100063.05;3736339;77;99046;-80
2022/04/22 04:47:12;;;;;;;59.07;37.70;;;;;;;9.65;100.00;100059.16;3784139;77;99055;-80
2022/04/22 04:52:13;;;;;;;55.57;37.20;;;;;;;9.71;100.00;100059.01;3769882;77;98948;-80
2022/04/22 04:57:14;;;;;;;56.60;38.20;;;;;;;9.80;100.00;100052.62;3798432;77;98955;-80
2022/04/22 05:02:14;;;;;;;56.07;36.93;;;;;;;9.88;100.00;100040.49;3784487;76;99317;-81
2022/04/22 05:07:15;;;;;;;53.43;36.20;;;;;;;9.96;100.00;100048.22;3798960;76;99649;-80
2022/04/22 05:12:16;;;;;;;53.07;34.63;;;;;;;10.00;100.00;100053.95;3770991;76;99168;-80
2022/04/22 05:17:17;;;;;;;55.93;37.50;;;;;;;10.10;100.00;100063.48;3792104;76;99346;-81
2022/04/22 05:22:18;;;;;;;52.10;34.65;;;;;;;10.18;100.00;100056.84;3780492;76;99564;-80
2022/04/22 05:27:19;;;;;;;50.73;35.23;;;;;;;10.36;100.00;100053.03;3788609;76;99576;-81
2022/04/22 05:32:38;;;;;;;52.37;35.50;;;;;;;10.50;100.00;100050.37;3777921;76;99157;-80
2022/04/22 05:37:45;;;;;;;51.10;35.45;;;;;;;10.60;100.00;100055.72;3787852;76;99612;-80
2022/04/22 05:42:47;;;;;;;50.75;34.33;;;;;;;10.67;100.00;100055.17;3774820;76;99523;-81
2022/04/22 05:47:50;;;;;;;48.78;30.02;;;;;;;10.80;100.00;100049.52;3777366;76;99434;-81
2022/04/22 05:52:52;;;;;;;47.30;31.27;;;;;;;10.90;100.00;100053.51;3758763;76;99314;-80
2022/04/22 05:57:54;;;;;;;43.87;28.83;;;;;;;11.01;100.00;100057.85;3784382;76;99376;-80
2022/04/22 06:02:58;;;;;;;42.75;28.57;;;;;;;11.16;100.00;100057.30;3779043;75;99402;-81
2022/04/22 06:13:26;;;;;;;35.05;24.67;;;;;;;11.52;100.00;100055.62;3798707;76;99744;-81
2022/04/22 06:18:27;;;;;;;36.20;23.40;;;;;;;11.79;99.12;100060.20;3780915;76;99369;-81
2022/04/22 06:23:28;;;;;;;33.70;22.77;;;;;;;11.97;97.55;100065.91;3788558;76;99407;-83
2022/04/22 06:28:29;;;;;;;31.53;20.17;;;;;;;12.06;95.95;100062.75;3828537;76;32897;-80
2022/04/22 06:33:31;;;;;;;30.63;21.20;;;;;;;12.22;94.36;100066.66;3757015;76;99313;-81
2022/04/22 06:38:34;;;;;;;29.63;20.63;;;;;;;12.35;93.56;100064.28;3772219;76;99206;-82
2022/04/22 06:48:55;;;;;;;27.07;18.25;;;;;;;12.60;90.91;100081.58;3814853;76;99677;-81
2022/04/22 06:53:57;;;;;;;24.57;16.35;;;;;;;12.67;89.25;100081.55;3816240;76;99128;-82
2022/04/22 06:58:58;;;;;;;25.32;15.98;;;;;;;12.67;89.25;100081.55;3812299;77;26150;-81
2022/04/22 07:04:00;;;;;;;23.03;16.20;;;;;;;12.68;87.86;100071.50;3801309;76;99230;-81
2022/04/22 07:09:04;;;;;;;25.43;15.45;;;;;;;12.72;86.05;100088.84;3762684;77;99347;-81
2022/04/22 07:14:05;;;;;;;24.23;15.05;;;;;;;12.61;85.05;100078.43;3747341;77;99541;-80
2022/04/22 07:19:07;;;;;;;22.35;14.47;;;;;;;12.81;84.41;100080.14;3762812;78;99106;-83
2022/04/22 07:24:09;;;;;;;23.47;13.70;;;;;;;12.85;83.63;100096.08;3673692;79;99606;-81
2022/04/22 07:29:13;;;;;;;21.90;13.67;;;;;;;12.73;82.70;100104.22;3748482;77;100313;-81
2022/04/22 07:34:15;;;;;;;18.92;12.78;;;;;;;12.77;84.13;100105.01;3753379;77;99089;-81
2022/04/22 07:39:16;;;;;;;18.90;11.68;;;;;;;12.83;82.83;100109.52;3755147;77;99394;-82
2022/04/22 07:49:39;;;;;;;16.62;11.50;;;;;;;12.63;82.74;100103.66;3740854;78;99566;-81
2022/04/22 07:54:40;;;;;;;18.57;10.48;;;;;;;12.60;82.47;100091.25;3755633;77;99557;-82
2022/04/22 07:59:42;;;;;;;15.70;10.13;;;;;;;12.60;82.47;100091.25;3763913;77;99325;-82
2022/04/22 08:04:44;;;;;;;16.57;10.53;;;;;;;12.64;79.99;100125.16;3753875;77;98944;-81
2022/04/22 08:09:46;;;;;;;15.93;10.03;;;;;;;12.64;79.99;100125.16;3800287;77;99366;-82
2022/04/22 08:14:47;;;;;;;16.75;10.03;;;;;;;12.46;79.55;100118.86;3760743;77;99391;-81
2022/04/22 08:19:48;;;;;;;16.83;9.33;;;;;;;12.35;79.38;100141.55;3750325;77;99177;-80
2022/04/22 08:24:49;;;;;;;13.57;8.13;;;;;;;12.23;79.41;100139.99;3758668;76;99420;-81
2022/04/22 08:29:50;;;;;;;16.70;9.37;;;;;;;12.25;79.78;100154.75;3767259;77;99220;-80
2022/04/22 08:34:51;;;;;;;13.58;8.83;;;;;;;12.31;80.29;100150.44;3768471;77;98721;-81
2022/04/22 08:39:54;;;;;;;17.73;9.10;;;;;;;12.42;80.49;100150.61;3776391;77;99093;-80
2022/04/22 08:44:57;;;;;;;17.93;9.70;;;;;;;12.43;80.02;100144.52;3805549;76;99070;-82
2022/04/22 08:50:02;;;;;;;16.37;9.90;;;;;;;12.50;78.84;100157.72;3829132;76;99087;-82
2022/04/22 08:55:07;;;;;;;16.50;9.27;;;;;;;12.48;79.70;100162.83;3825555;76;99357;-81
2022/04/22 09:00:09;;;;;;;16.52;10.20;;;;;;;12.42;78.22;100167.17;3803782;76;99006;-80
2022/04/22 09:05:10;;;;;;;17.00;10.63;;;;;;;12.28;79.88;100165.02;3822092;75;99541;-81
2022/04/22 09:10:12;;;;;;;19.00;10.33;;;;;;;12.28;79.88;100165.02;3775292;77;32985;-81
2022/04/22 09:15:14;;;;;;;19.33;10.37;;;;;;;12.40;81.36;100164.03;3772743;77;99438;-81
2022/04/22 09:20:16;;;;;;;16.73;10.50;;;;;;;12.48;81.11;100155.16;3738335;77;99436;-80
2022/04/22 09:25:25;;;;;;;15.10;10.35;;;;;;;12.41;81.50;100166.17;3754333;77;99164;-82
2022/04/22 09:30:26;;;;;;;18.35;11.97;;;;;;;12.51;83.27;100160.67;3756708;76;99525;-82
2022/04/22 09:35:28;;;;;;;15.53;12.13;;;;;;;12.60;80.94;100167.93;3753601;76;99145;-81
2022/04/22 09:46:30;;;;;;;16.20;9.73;;;;;;;12.60;79.93;100171.30;3713870;78;98795;-82
2022/04/22 09:51:31;;;;;;;12.50;8.77;;;;;;;12.73;80.03;100159.45;3701924;78;99011;-81
2022/04/22 09:56:33;;;;;;;12.43;8.50;;;;;;;12.92;79.25;100163.75;3718329;77;98838;-81
2022/04/22 10:01:34;;;;;;;12.98;7.97;;;;;;;13.03;78.74;100160.39;3709262;76;99294;-82
2022/04/22 10:06:36;;;;;;;10.57;6.43;;;;;;;13.04;79.43;100160.58;3727690;77;99366;-81
2022/04/22 10:11:38;;;;;;;8.80;5.70;;;;;;;13.13;78.71;100168.63;3718980;76;99612;-81
2022/04/22 10:16:39;;;;;;;11.90;6.00;;;;;;;13.04;78.92;100171.02;3782727;76;26208;-81
2022/04/22 10:21:42;;;;;;;12.20;6.33;;;;;;;12.83;78.17;100165.55;3761228;76;99382;-81
2022/04/22 10:26:43;;;;;;;9.00;4.65;;;;;;;12.67;77.30;100187.27;3761900;76;98811;-80
2022/04/22 10:31:44;;;;;;;6.93;3.77;;;;;;;12.47;77.91;100172.87;3766197;76;98836;-81
2022/04/22 10:36:46;;;;;;;8.13;5.30;;;;;;;12.44;77.97;100180.58;3775816;76;98774;-82
2022/04/22 10:41:47;;;;;;;7.20;4.08;;;;;;;12.42;78.11;100178.82;3742748;76;98975;-81
2022/04/22 10:52:18;;;;;;;8.43;3.92;;;;;;;12.43;79.51;100158.31;3724407;77;98952;-82
2022/04/22 10:57:29;;;;;;;6.35;3.50;;;;;;;12.58;79.24;100137.77;3721694;78;98934;-82
2022/04/22 11:02:33;;;;;;;6.60;3.62;;;;;;;12.99;78.08;100166.52;3705797;77;98778;-80
2022/04/22 11:07:56;;;;;;;7.45;3.47;;;;;;;13.21;78.28;100171.58;3705096;78;99176;-82
2022/04/22 11:13:00;;;;;;;5.93;3.30;;;;;;;13.33;76.97;100161.45;3713743;78;98749;-83
2022/04/22 11:18:01;;;;;;;7.25;3.10;;;;;;;13.11;74.36;100160.55;3757994;78;98883;-83
2022/04/22 11:23:05;;;;;;;5.07;3.00;;;;;;;12.89;74.86;100160.39;3745226;77;98920;-79
2022/04/22 11:28:10;;;;;;;5.00;2.72;;;;;;;13.07;75.76;100163.33;3718328;79;98375;-82
2022/04/22 11:33:24;;;;;;;5.93;3.33;;;;;;;13.28;73.58;100162.45;3731579;78;98974;-81
2022/04/22 11:38:26;;;;;;;6.55;3.08;;;;;;;13.28;73.46;100166.02;3715756;78;98832;-82
2022/04/22 11:43:29;;;;;;;6.67;3.90;;;;;;;13.32;72.83;100174.29;3712430;78;99211;-84
2022/04/22 11:48:30;;;;;;;6.40;3.50;;;;;;;13.18;72.74;100163.28;3731278;78;99145;-82
2022/04/22 11:53:34;;;;;;;6.07;3.20;;;;;;;13.25;72.18;100164.66;3711315;78;98756;-82
2022/04/22 11:58:35;;;;;;;6.23;2.80;;;;;;;13.24;70.93;100161.09;3704711;78;26459;-82
2022/04/22 12:09:02;;;;;;;6.15;2.98;;;;;;;13.72;67.14;100144.64;3739923;78;98984;-81
2022/04/22 12:14:03;;;;;;;4.93;2.60;;;;;;;13.68;67.11;100125.93;3749982;76;99041;-80
2022/04/22 12:19:08;;;;;;;6.93;3.10;;;;;;;13.82;67.36;100151.52;3769178;78;99130;-81
2022/04/22 12:24:09;;;;;;;8.90;3.12;;;;;;;13.81;64.82;100158.83;3735004;78;99181;-82
2022/04/22 12:29:24;;;;;;;5.87;2.77;;;;;;;13.64;66.47;100160.52;3763173;78;32956;-84
2022/04/22 12:34:32;;;;;;;7.42;3.30;;;;;;;13.77;66.20;100160.23;3780092;77;99135;-82
2022/04/22 12:39:39;;;;;;;8.73;3.10;;;;;;;13.86;65.45;100137.66;3788245;76;99226;-81
2022/04/22 12:44:40;;;;;;;6.83;2.60;;;;;;;13.96;65.37;100150.02;3790674;76;98816;-82
2022/04/22 12:55:08;;;;;;;4.75;2.98;;;;;;;14.02;62.90;100149.77;3766533;76;98891;-82
2022/04/22 13:00:19;;;;;;;6.40;2.98;;;;;;;14.04;63.34;100139.10;3800081;76;98743;-81
2022/04/22 13:05:27;;;;;;;6.60;3.40;;;;;;;14.15;63.20;100137.62;3805830;76;98691;-82
2022/04/22 13:10:29;;;;;;;7.05;3.35;;;;;;;14.12;61.20;100130.92;3801271;76;98491;-83
2022/04/22 13:15:32;;;;;;;6.58;3.45;;;;;;;14.11;60.76;100141.04;3775153;76;98864;-83
2022/04/22 13:20:33;;;;;;;9.08;4.03;;;;;;;14.10;61.72;100128.37;3800065;76;98888;-83
2022/04/22 13:25:34;;;;;;;10.93;4.63;;;;;;;14.20;61.60;100131.69;3778861;76;99177;-80
2022/04/22 13:30:35;;;;;;;9.60;5.33;;;;;;;14.16;61.06;100126.16;3751879;76;99059;-83
2022/04/22 13:35:36;;;;;;;8.60;4.97;;;;;;;14.15;58.87;100121.81;3750598;77;99149;-83
2022/04/22 13:40:36;;;;;;;8.20;4.93;;;;;;;14.15;61.24;100114.90;3763516;77;33551;-82
2022/04/22 13:56:16;;;;;;;8.68;4.70;;;;;;;14.76;57.89;100113.94;3768946;77;98824;-83
2022/04/22 14:01:17;;;;;;;9.50;4.90;;;;;;;14.85;56.67;100087.92;3769467;76;99228;-82
2022/04/22 14:06:18;;;;;;;9.63;5.30;;;;;;;15.00;57.23;100091.30;3762749;77;98928;-82
2022/04/22 14:11:19;;;;;;;10.50;5.27;;;;;;;14.86;56.48;100094.23;3760162;77;99435;-82
2022/04/22 14:16:20;;;;;;;7.90;4.67;;;;;;;14.95;56.82;100087.02;3812896;77;99129;-82
2022/04/22 14:21:21;;;;;;;8.93;5.25;;;;;;;15.13;55.47;100094.50;3798802;75;98856;-81
2022/04/22 14:26:22;;;;;;;9.00;4.87;;;;;;;15.08;53.41;100091.39;3800450;77;99266;-81
2022/04/22 14:31:23;;;;;;;8.23;4.67;;;;;;;15.04;54.35;100099.75;3807980;77;98794;-82
2022/04/22 14:36:24;;;;;;;9.03;5.33;;;;;;;15.09;54.35;100085.44;3816830;77;98757;-82
2022/04/22 14:41:25;;;;;;;7.57;4.57;;;;;;;15.17;54.15;100094.45;3799399;77;98406;-81
2022/04/22 14:46:26;;;;;;;10.27;4.50;;;;;;;15.22;53.76;100089.83;3827466;75;98493;-81
2022/04/22 14:51:27;;;;;;;8.03;4.87;;;;;;;14.97;53.49;100095.69;3814554;76;99221;-82
2022/04/22 14:56:27;;;;;;;9.13;4.87;;;;;;;14.81;52.93;100091.32;3812156;76;98764;-81
2022/04/22 15:01:28;;;;;;;10.37;5.10;;;;;;;14.52;52.79;100090.66;3811751;76;98801;-81
2022/04/22 15:06:32;;;;;;;10.13;5.00;;;;;;;14.48;53.05;100082.38;3830016;76;99518;-82
2022/04/22 15:11:34;;;;;;;9.90;4.95;;;;;;;14.55;54.33;100089.23;3792901;76;99158;-80
2022/04/22 15:16:35;;;;;;;8.80;4.67;;;;;;;14.66;54.47;100076.67;3718891;77;32891;-81
2022/04/22 15:26:57;;;;;;;10.72;5.95;;;;;;;14.75;51.69;100094.95;3780058;77;98539;-82
2022/04/22 15:31:59;;;;;;;7.92;5.20;;;;;;;14.55;51.63;100101.69;3764595;77;99044;-81
2022/04/22 15:37:03;;;;;;;8.35;5.50;;;;;;;14.37;53.13;100098.91;3793798;77;98797;-81
2022/04/22 15:42:05;;;;;;;10.43;6.00;;;;;;;14.29;53.17;100082.19;3771274;77;98888;-80
2022/04/22 15:47:06;;;;;;;8.78;5.12;;;;;;;14.43;53.46;100100.83;3781207;77;33650;-81
2022/04/22 15:52:12;;;;;;;8.88;5.83;;;;;;;14.32;53.53;100100.73;3760882;77;99147;-82
2022/04/22 15:57:11;;;;;;;9.48;6.62;;;;;;;14.18;52.46;100098.84;3780588;76;99016;-81
2022/04/22 16:02:12;;;;;;;9.17;6.10;;;;;;;14.07;53.16;100102.30;3792615;76;99033;-81
2022/04/22 16:07:13;;;;;;;11.33;7.63;;;;;;;13.97;53.17;100101.81;3786715;76;98738;-82
2022/04/22 16:17:34;;;;;;;12.90;9.03;;;;;;;13.90;53.97;100112.14;3819130;76;98994;-81
2022/04/22 16:22:35;;;;;;;14.47;10.10;;;;;;;13.78;54.41;100114.78;3814387;75;99112;-81
2022/04/22 16:27:36;;;;;;;17.47;12.13;;;;;;;13.68;55.27;100111.48;3801885;76;98978;-83
2022/04/22 16:32:38;;;;;;;12.63;9.53;;;;;;;13.66;55.27;100119.41;3766342;76;99520;-81
2022/04/22 16:37:39;;;;;;;12.40;9.27;;;;;;;13.51;54.91;100124.06;3782151;76;99235;-82
2022/04/22 16:42:40;;;;;;;15.33;11.37;;;;;;;13.37;54.69;100129.06;3804525;76;98970;-81
2022/04/22 16:47:41;;;;;;;14.30;11.10;;;;;;;13.24;55.28;100124.39;3799151;75;99120;-81
2022/04/22 16:52:44;;;;;;;15.30;10.70;;;;;;;13.13;55.75;100131.94;3806540;75;99811;-81
2022/04/22 16:57:47;;;;;;;13.68;9.63;;;;;;;13.02;55.86;100129.20;3820713;76;99254;-82
2022/04/22 17:02:48;;;;;;;15.58;10.48;;;;;;;12.94;55.60;100132.36;3798770;76;99393;-83
2022/04/22 17:07:50;;;;;;;15.90;9.70;;;;;;;12.85;56.08;100137.51;3792994;76;99467;-81
2022/04/22 17:12:51;;;;;;;11.68;8.83;;;;;;;12.72;56.49;100140.51;3748594;76;99221;-82
2022/04/22 17:23:11;;;;;;;12.85;9.05;;;;;;;12.50;57.41;100148.64;3745480;78;98861;-81
2022/04/22 17:28:13;;;;;;;14.50;10.97;;;;;;;12.32;57.69;100150.02;3739799;78;99278;-81
2022/04/22 17:33:15;;;;;;;14.23;10.43;;;;;;;12.20;58.26;100146.86;3730089;78;99170;-82
2022/04/22 17:38:16;;;;;;;16.00;11.55;;;;;;;12.04;58.63;100153.39;3663053;79;99537;-83
2022/04/22 17:43:17;;;;;;;12.97;10.17;;;;;;;11.89;58.85;100164.20;3739919;76;99400;-82
2022/04/22 17:48:18;;;;;;;18.27;11.23;;;;;;;11.78;59.58;100167.53;3746249;77;99158;-82
2022/04/22 17:53:22;;;;;;;15.90;11.17;;;;;;;11.66;60.01;100168.67;3735538;77;99239;-82
2022/04/22 17:58:23;;;;;;;15.15;11.10;;;;;;;11.54;60.53;100170.39;3740955;77;98951;-81
2022/04/22 18:03:24;;;;;;;17.15;11.95;;;;;;;11.43;60.97;100173.70;3735567;78;99114;-81
2022/04/22 18:08:25;;;;;;;16.30;11.73;;;;;;;11.35;61.03;100174.06;3751732;77;99241;-81
2022/04/22 18:13:27;;;;;;;16.47;11.93;;;;;;;11.26;60.98;100178.56;3750791;76;99112;-81
2022/04/22 18:18:28;;;;;;;14.87;10.37;;;;;;;11.20;61.06;100193.08;3749214;76;99094;-81
2022/04/22 18:23:29;;;;;;;14.63;9.80;;;;;;;11.13;60.96;100192.45;3733941;76;99046;-81
2022/04/22 18:28:32;;;;;;;14.77;10.07;;;;;;;11.02;61.14;100195.73;3745522;76;98640;-81
2022/04/22 18:33:35;;;;;;;16.12;9.83;;;;;;;10.93;61.05;100194.51;3715205;76;99158;-81
2022/04/22 18:38:37;;;;;;;12.13;8.48;;;;;;;10.82;61.01;100196.41;3758937;76;99501;-82
2022/04/22 18:43:38;;;;;;;12.65;8.13;;;;;;;10.73;61.41;100193.19;3743271;76;99325;-82
2022/04/22 18:48:39;;;;;;;12.97;8.43;;;;;;;10.61;61.34;100196.27;3752891;76;99386;-83
2022/04/22 18:53:40;;;;;;;14.87;8.70;;;;;;;10.50;61.68;100205.02;3720593;77;98955;-83
2022/04/22 18:58:41;;;;;;;16.70;9.00;;;;;;;10.39;62.17;100201.40;3769838;76;31629;-82
2022/04/22 19:03:43;;;;;;;15.43;9.10;;;;;;;10.25;62.39;100202.07;3742879;76;99126;-81
2022/04/22 19:08:44;;;;;;;15.10;8.27;;;;;;;10.10;62.89;100200.95;3743793;76;99429;-82
2022/04/22 19:13:45;;;;;;;13.20;8.00;;;;;;;9.97;63.43;100201.01;3731947;77;99010;-81
2022/04/22 19:18:46;;;;;;;15.13;9.37;;;;;;;9.85;64.08;100204.81;3734227;78;98595;-82
2022/04/22 19:23:49;;;;;;;13.93;9.03;;;;;;;9.68;64.50;100200.49;3757129;76;99208;-82
2022/04/22 19:28:50;;;;;;;13.25;8.90;;;;;;;9.56;64.86;100203.50;3760060;76;34004;-84
2022/04/22 19:33:51;;;;;;;13.73;8.17;;;;;;;9.46;65.40;100200.05;3746060;78;98752;-83
2022/04/22 19:44:12;;;;;;;13.95;7.70;;;;;;;9.17;66.37;100194.01;3746226;78;98790;-82
2022/04/22 19:49:13;;;;;;;21.83;11.23;;;;;;;9.03;66.77;100191.06;3754090;77;98897;-83
2022/04/22 19:54:14;;;;;;;14.93;9.60;;;;;;;8.85;67.19;100192.22;3746960;77;99311;-82
2022/04/22 19:59:15;;;;;;;15.70;10.00;;;;;;;8.69;67.79;100191.59;3756043;77;32138;-81
2022/04/22 20:04:16;;;;;;;16.40;9.67;;;;;;;8.56;68.38;100194.91;3743777;77;99081;-82
2022/04/22 20:09:16;;;;;;;16.37;9.70;;;;;;;8.44;68.47;100189.61;3755873;77;97644;-82
2022/04/22 20:14:22;;;;;;;18.23;10.47;;;;;;;8.35;68.87;100184.98;3743671;76;98534;-82
2022/04/22 20:19:21;;;;;;;16.03;10.30;;;;;;;8.27;69.21;100192.86;3758695;76;98063;-81
2022/04/22 20:24:22;;;;;;;24.50;12.23;;;;;;;8.16;69.50;100198.72;3761143;76;98788;-81
2022/04/22 20:29:23;;;;;;;49.33;20.55;;;;;;;8.03;69.97;100199.50;3755030;76;32927;-81
2022/04/22 20:34:24;;;;;;;26.73;13.20;;;;;;;7.93;70.29;100197.36;3733869;76;98986;-81
2022/04/22 20:40:34;;;;;;;20.10;11.37;;;;;;;7.79;70.82;100194.35;3748627;76;98782;-82
2022/04/22 20:44:28;;;;;;;22.10;12.37;;;;;;;7.62;71.33;100196.19;3745266;76;98818;-82
2022/04/22 20:49:29;;;;;;;17.80;10.80;;;;;;;7.51;71.82;100197.13;3764947;76;98851;-82
2022/04/22 20:54:30;;;;;;;18.23;10.23;;;;;;;7.40;72.52;100187.35;3730553;76;98824;-82
2022/04/22 20:59:32;;;;;;;16.73;9.93;;;;;;;7.30;73.37;100194.00;3751505;76;32204;-82
2022/04/22 21:04:32;;;;;;;18.37;10.17;;;;;;;7.23;73.27;100186.98;3748886;76;98221;-82
2022/04/22 21:09:33;;;;;;;18.77;10.80;;;;;;;7.15;73.56;100181.17;3751542;76;99262;-82
2022/04/22 21:14:34;;;;;;;18.17;10.80;;;;;;;7.14;73.69;100185.06;3803359;76;98845;-82
2022/04/22 21:19:35;;;;;;;15.60;10.10;;;;;;;7.22;73.72;100190.31;3806393;76;99171;-82
2022/04/22 21:24:36;;;;;;;14.20;8.37;;;;;;;7.27;73.38;100183.75;3806251;75;99129;-82
2022/04/22 21:29:37;;;;;;;15.53;9.33;;;;;;;7.27;73.32;100185.13;3799597;76;98600;-82
2022/04/22 21:34:38;;;;;;;16.17;9.38;;;;;;;7.21;73.49;100183.23;3802777;76;98286;-82
2022/04/22 21:39:39;;;;;;;14.43;8.53;;;;;;;7.04;73.59;100174.69;3812425;76;98841;-82
2022/04/22 21:44:40;;;;;;;16.03;9.73;;;;;;;7.04;73.76;100186.41;3801376;76;98705;-82
2022/04/22 21:49:41;;;;;;;16.90;9.53;;;;;;;6.95;74.23;100191.31;3817221;76;98621;-82
2022/04/22 21:54:42;;;;;;;18.07;10.70;;;;;;;6.85;74.77;100185.03;3810792;76;98537;-81
2022/04/22 21:59:43;;;;;;;16.30;9.83;;;;;;;6.72;75.62;100184.14;3795210;76;98804;-82
2022/04/22 22:04:48;;;;;;;16.97;10.03;;;;;;;6.65;75.74;100191.60;3800396;76;98440;-82
2022/04/22 22:09:48;;;;;;;16.20;9.98;;;;;;;6.54;75.76;100189.20;3813891;76;98608;-82
2022/04/22 22:14:49;;;;;;;19.70;11.23;;;;;;;6.45;75.57;100191.91;3786516;76;99018;-82
2022/04/22 22:19:50;;;;;;;21.33;12.37;;;;;;;6.36;76.12;100194.83;3763433;76;98793;-81
2022/04/22 22:24:52;;;;;;;20.33;11.70;;;;;;;6.27;76.35;100196.95;3769619;77;99228;-81
2022/04/22 22:29:53;;;;;;;20.67;11.93;;;;;;;6.19;76.71;100194.39;3787776;77;99205;-82
2022/04/22 22:34:54;;;;;;;20.17;10.60;;;;;;;6.09;76.90;100192.99;3809069;76;98398;-82
2022/04/22 22:39:55;;;;;;;18.23;10.70;;;;;;;6.04;76.96;100187.79;3790094;76;99009;-82
2022/04/22 22:44:56;;;;;;;19.98;12.43;;;;;;;5.99;77.06;100189.42;3772648;76;98808;-82
2022/04/22 22:49:57;;;;;;;20.97;12.90;;;;;;;5.95;77.33;100182.29;3794532;76;99291;-82
2022/04/22 22:54:58;;;;;;;25.57;14.23;;;;;;;5.87;77.37;100177.78;3768307;76;98833;-83
2022/04/22 22:59:59;;;;;;;21.37;12.53;;;;;;;5.75;78.07;100174.53;3763070;76;99129;-82
2022/04/22 23:04:59;;;;;;;23.10;12.90;;;;;;;5.62;78.63;100175.73;3782440;76;98824;-83
2022/04/22 23:10:01;;;;;;;23.33;12.27;;;;;;;5.50;78.94;100170.34;3777469;76;99058;-83
2022/04/22 23:15:07;;;;;;;20.27;11.90;;;;;;;5.44;78.93;100166.28;3802249;76;98584;-83
2022/04/22 23:20:06;;;;;;;22.35;12.88;;;;;;;5.40;78.99;100162.66;3795534;76;99222;-83
2022/04/22 23:25:08;;;;;;;25.55;14.38;;;;;;;5.37;79.17;100172.92;3810429;75;98818;-82
2022/04/22 23:30:09;;;;;;;23.83;13.28;;;;;;;5.32;79.59;100175.91;3814047;76;98923;-83
2022/04/22 23:35:11;;;;;;;25.17;15.55;;;;;;;5.17;79.87;100167.65;3783734;76;98743;-82
2022/04/22 23:40:12;;;;;;;29.30;15.67;;;;;;;5.09;80.33;100154.41;3796541;75;99055;-83
2022/04/22 23:45:13;;;;;;;28.33;16.73;;;;;;;5.04;80.44;100154.66;3803878;76;98991;-83
2022/04/22 23:50:14;;;;;;;24.07;14.67;;;;;;;4.91;80.61;100148.22;3823463;76;99324;-83
2022/04/22 23:55:16;;;;;;;24.52;14.80;;;;;;;4.70;81.04;100155.19;3804706;76;98799;-83
